Terminal Aerodrome Forecast
Issued by NWS Bismarck, ND

Home | Current Version | Previous Version | Graphics & Text | Print | Product List | Glossary On
Versions: 1 2 3 4 5 6 7 8 9 10 11 12 13 14 15 16 17 18 19 20 21 22 23
368
FTUS43 KBIS 211257 AAA
TAFISN
TAF AMD
KISN 211257Z 2113/2212 18003KT P6SM OVC090
     FM211600 28004KT P6SM BKN090
     FM212000 28006KT 5SM BR SCT003 BKN035
     FM220100 30006KT 3SM BR BKN007 OVC015
     FM220400 30007KT 1SM BR OVC004=

USA.gov is the U.S. government's official web portal to all federal, state and local government web resources and services.